sensor_id;sensor_type;location;lat;lon;timestamp;P1;durP1;ratioP1;P2;durP2;ratioP2
39448;SDS011;25151;45.566;9.382;2022-07-22T00:00:40;7.95;;;2.05;;
39448;SDS011;25151;45.566;9.382;2022-07-22T00:03:41;3.17;;;1.73;;
39448;SDS011;25151;45.566;9.382;2022-07-22T00:06:42;4.50;;;1.92;;
39448;SDS011;25151;45.566;9.382;2022-07-22T00:09:43;5.85;;;2.08;;
39448;SDS011;25151;45.566;9.382;2022-07-22T00:12:43;3.72;;;1.60;;
39448;SDS011;25151;45.566;9.382;2022-07-22T00:15:44;3.25;;;1.77;;
39448;SDS011;25151;45.566;9.382;2022-07-22T00:18:45;4.00;;;1.63;;
39448;SDS011;25151;45.566;9.382;2022-07-22T00:21:45;3.42;;;2.35;;
39448;SDS011;25151;45.566;9.382;2022-07-22T00:24:46;3.25;;;1.75;;
39448;SDS011;25151;45.566;9.382;2022-07-22T00:27:47;3.30;;;1.60;;
39448;SDS011;25151;45.566;9.382;2022-07-22T00:30:47;3.58;;;1.80;;
39448;SDS011;25151;45.566;9.382;2022-07-22T00:33:48;4.30;;;1.55;;
39448;SDS011;25151;45.566;9.382;2022-07-22T00:36:49;3.20;;;1.67;;
39448;SDS011;25151;45.566;9.382;2022-07-22T00:39:50;4.80;;;2.25;;
39448;SDS011;25151;45.566;9.382;2022-07-22T00:42:51;3.25;;;1.55;;
39448;SDS011;25151;45.566;9.382;2022-07-22T00:45:53;4.05;;;2.17;;
39448;SDS011;25151;45.566;9.382;2022-07-22T00:48:54;4.28;;;1.63;;
39448;SDS011;25151;45.566;9.382;2022-07-22T00:51:55;3.03;;;1.60;;
39448;SDS011;25151;45.566;9.382;2022-07-22T00:54:56;4.00;;;1.63;;
39448;SDS011;25151;45.566;9.382;2022-07-22T00:57:59;4.15;;;1.50;;
39448;SDS011;25151;45.566;9.382;2022-07-22T01:00:59;4.78;;;1.80;;
39448;SDS011;25151;45.566;9.382;2022-07-22T01:04:00;2.65;;;1.52;;
39448;SDS011;25151;45.566;9.382;2022-07-22T01:07:01;4.82;;;1.40;;
39448;SDS011;25151;45.566;9.382;2022-07-22T01:10:02;5.57;;;1.80;;
39448;SDS011;25151;45.566;9.382;2022-07-22T01:13:04;2.90;;;1.40;;
39448;SDS011;25151;45.566;9.382;2022-07-22T01:16:05;4.10;;;1.83;;
39448;SDS011;25151;45.566;9.382;2022-07-22T01:19:07;3.58;;;1.50;;
39448;SDS011;25151;45.566;9.382;2022-07-22T01:22:07;2.90;;;1.33;;
39448;SDS011;25151;45.566;9.382;2022-07-22T01:25:08;2.45;;;1.20;;
39448;SDS011;25151;45.566;9.382;2022-07-22T01:28:09;4.43;;;1.88;;
39448;SDS011;25151;45.566;9.382;2022-07-22T01:31:12;2.55;;;1.50;;
39448;SDS011;25151;45.566;9.382;2022-07-22T01:34:13;4.28;;;1.70;;
39448;SDS011;25151;45.566;9.382;2022-07-22T01:37:14;2.42;;;1.65;;
39448;SDS011;25151;45.566;9.382;2022-07-22T01:40:14;4.20;;;1.70;;
39448;SDS011;25151;45.566;9.382;2022-07-22T01:43:15;4.13;;;1.77;;
39448;SDS011;25151;45.566;9.382;2022-07-22T01:46:17;2.92;;;1.55;;
39448;SDS011;25151;45.566;9.382;2022-07-22T01:49:18;3.10;;;1.55;;
39448;SDS011;25151;45.566;9.382;2022-07-22T01:52:19;4.10;;;1.70;;
39448;SDS011;25151;45.566;9.382;2022-07-22T01:55:20;4.00;;;1.65;;
39448;SDS011;25151;45.566;9.382;2022-07-22T01:58:21;1.98;;;1.20;;
39448;SDS011;25151;45.566;9.382;2022-07-22T02:01:22;3.97;;;1.77;;
39448;SDS011;25151;45.566;9.382;2022-07-22T02:04:24;4.03;;;1.73;;
39448;SDS011;25151;45.566;9.382;2022-07-22T02:07:26;2.55;;;1.50;;
39448;SDS011;25151;45.566;9.382;2022-07-22T02:10:27;3.08;;;1.85;;
39448;SDS011;25151;45.566;9.382;2022-07-22T02:13:28;3.42;;;1.80;;
39448;SDS011;25151;45.566;9.382;2022-07-22T02:16:28;3.03;;;1.75;;
39448;SDS011;25151;45.566;9.382;2022-07-22T02:19:29;3.08;;;1.60;;
39448;SDS011;25151;45.566;9.382;2022-07-22T02:22:30;2.20;;;1.35;;
39448;SDS011;25151;45.566;9.382;2022-07-22T02:25:30;4.10;;;1.67;;
39448;SDS011;25151;45.566;9.382;2022-07-22T02:28:31;2.53;;;1.48;;
39448;SDS011;25151;45.566;9.382;2022-07-22T02:31:32;3.20;;;1.73;;
39448;SDS011;25151;45.566;9.382;2022-07-22T02:34:32;2.03;;;1.30;;
39448;SDS011;25151;45.566;9.382;2022-07-22T02:37:33;2.22;;;1.58;;
39448;SDS011;25151;45.566;9.382;2022-07-22T02:40:34;4.07;;;1.52;;
39448;SDS011;25151;45.566;9.382;2022-07-22T02:43:38;3.95;;;1.50;;
39448;SDS011;25151;45.566;9.382;2022-07-22T02:46:39;1.92;;;1.35;;
39448;SDS011;25151;45.566;9.382;2022-07-22T02:49:39;4.65;;;1.52;;
39448;SDS011;25151;45.566;9.382;2022-07-22T02:52:40;2.85;;;1.35;;
39448;SDS011;25151;45.566;9.382;2022-07-22T02:55:41;2.70;;;1.40;;
39448;SDS011;25151;45.566;9.382;2022-07-22T02:58:42;3.63;;;1.70;;
39448;SDS011;25151;45.566;9.382;2022-07-22T03:01:42;3.53;;;1.70;;
39448;SDS011;25151;45.566;9.382;2022-07-22T03:04:43;3.80;;;2.10;;
39448;SDS011;25151;45.566;9.382;2022-07-22T03:07:44;3.25;;;1.20;;
39448;SDS011;25151;45.566;9.382;2022-07-22T03:10:44;2.13;;;1.48;;
39448;SDS011;25151;45.566;9.382;2022-07-22T03:13:45;3.42;;;1.98;;
39448;SDS011;25151;45.566;9.382;2022-07-22T03:16:46;2.53;;;1.75;;
39448;SDS011;25151;45.566;9.382;2022-07-22T03:19:48;2.67;;;1.90;;
39448;SDS011;25151;45.566;9.382;2022-07-22T03:22:49;2.97;;;1.67;;
39448;SDS011;25151;45.566;9.382;2022-07-22T03:25:50;2.03;;;1.50;;
39448;SDS011;25151;45.566;9.382;2022-07-22T03:28:51;5.10;;;2.00;;
39448;SDS011;25151;45.566;9.382;2022-07-22T03:31:52;6.80;;;1.73;;
39448;SDS011;25151;45.566;9.382;2022-07-22T03:34:52;3.53;;;1.42;;
39448;SDS011;25151;45.566;9.382;2022-07-22T03:37:55;2.33;;;1.42;;
39448;SDS011;25151;45.566;9.382;2022-07-22T03:40:56;2.55;;;1.50;;
39448;SDS011;25151;45.566;9.382;2022-07-22T03:43:57;5.60;;;1.70;;
39448;SDS011;25151;45.566;9.382;2022-07-22T03:47:03;4.00;;;1.73;;
39448;SDS011;25151;45.566;9.382;2022-07-22T03:50:04;2.00;;;1.48;;
39448;SDS011;25151;45.566;9.382;2022-07-22T03:53:05;3.45;;;1.60;;
39448;SDS011;25151;45.566;9.382;2022-07-22T03:56:10;2.50;;;1.42;;
39448;SDS011;25151;45.566;9.382;2022-07-22T03:59:14;3.50;;;1.77;;
39448;SDS011;25151;45.566;9.382;2022-07-22T04:02:15;8.80;;;1.52;;
39448;SDS011;25151;45.566;9.382;2022-07-22T04:05:16;3.22;;;1.73;;
39448;SDS011;25151;45.566;9.382;2022-07-22T04:08:17;5.03;;;1.40;;
39448;SDS011;25151;45.566;9.382;2022-07-22T04:11:18;3.30;;;1.52;;
39448;SDS011;25151;45.566;9.382;2022-07-22T04:14:19;4.03;;;1.67;;
39448;SDS011;25151;45.566;9.382;2022-07-22T04:17:20;4.05;;;1.80;;
39448;SDS011;25151;45.566;9.382;2022-07-22T04:20:26;3.55;;;1.75;;
39448;SDS011;25151;45.566;9.382;2022-07-22T04:23:50;4.32;;;1.60;;
39448;SDS011;25151;45.566;9.382;2022-07-22T04:27:23;4.00;;;1.73;;
39448;SDS011;25151;45.566;9.382;2022-07-22T04:30:40;3.45;;;1.65;;
39448;SDS011;25151;45.566;9.382;2022-07-22T04:34:05;6.60;;;1.40;;
39448;SDS011;25151;45.566;9.382;2022-07-22T04:37:39;6.93;;;2.00;;
39448;SDS011;25151;45.566;9.382;2022-07-22T04:40:40;3.75;;;1.55;;
39448;SDS011;25151;45.566;9.382;2022-07-22T04:43:41;3.75;;;1.45;;
39448;SDS011;25151;45.566;9.382;2022-07-22T04:46:41;8.00;;;1.67;;
39448;SDS011;25151;45.566;9.382;2022-07-22T04:49:45;4.80;;;1.60;;
39448;SDS011;25151;45.566;9.382;2022-07-22T04:52:46;4.32;;;1.75;;
39448;SDS011;25151;45.566;9.382;2022-07-22T04:55:47;4.00;;;1.27;;
39448;SDS011;25151;45.566;9.382;2022-07-22T04:58:48;4.70;;;1.58;;
39448;SDS011;25151;45.566;9.382;2022-07-22T05:01:48;4.07;;;1.60;;
39448;SDS011;25151;45.566;9.382;2022-07-22T05:04:50;5.80;;;1.60;;
39448;SDS011;25151;45.566;9.382;2022-07-22T05:07:51;4.97;;;1.50;;
39448;SDS011;25151;45.566;9.382;2022-07-22T05:18:13;3.58;;;1.95;;
39448;SDS011;25151;45.566;9.382;2022-07-22T05:21:19;3.53;;;1.55;;
39448;SDS011;25151;45.566;9.382;2022-07-22T05:24:21;2.90;;;1.40;;
39448;SDS011;25151;45.566;9.382;2022-07-22T05:27:37;2.45;;;1.27;;
39448;SDS011;25151;45.566;9.382;2022-07-22T05:30:42;2.15;;;1.40;;
39448;SDS011;25151;45.566;9.382;2022-07-22T05:37:44;2.33;;;1.52;;
39448;SDS011;25151;45.566;9.382;2022-07-22T05:41:11;3.47;;;2.00;;
39448;SDS011;25151;45.566;9.382;2022-07-22T05:48:24;3.03;;;1.45;;
39448;SDS011;25151;45.566;9.382;2022-07-22T05:52:10;1.88;;;1.42;;
39448;SDS011;25151;45.566;9.382;2022-07-22T05:56:03;3.08;;;1.40;;
39448;SDS011;25151;45.566;9.382;2022-07-22T05:59:05;5.03;;;1.88;;
39448;SDS011;25151;45.566;9.382;2022-07-22T06:02:06;5.40;;;1.85;;
39448;SDS011;25151;45.566;9.382;2022-07-22T06:05:31;3.70;;;2.10;;
39448;SDS011;25151;45.566;9.382;2022-07-22T06:08:37;3.63;;;1.60;;
39448;SDS011;25151;45.566;9.382;2022-07-22T06:11:51;2.97;;;1.60;;
39448;SDS011;25151;45.566;9.382;2022-07-22T06:18:32;3.03;;;1.83;;
39448;SDS011;25151;45.566;9.382;2022-07-22T06:21:41;5.07;;;2.10;;
39448;SDS011;25151;45.566;9.382;2022-07-22T06:24:54;4.93;;;1.88;;
39448;SDS011;25151;45.566;9.382;2022-07-22T06:27:55;3.92;;;1.75;;
39448;SDS011;25151;45.566;9.382;2022-07-22T06:30:59;4.68;;;1.60;;
39448;SDS011;25151;45.566;9.382;2022-07-22T06:34:10;8.35;;;1.98;;
39448;SDS011;25151;45.566;9.382;2022-07-22T06:37:34;5.32;;;1.80;;
39448;SDS011;25151;45.566;9.382;2022-07-22T06:40:38;3.50;;;1.92;;
39448;SDS011;25151;45.566;9.382;2022-07-22T06:43:39;7.32;;;2.05;;
39448;SDS011;25151;45.566;9.382;2022-07-22T06:50:08;6.05;;;1.83;;
39448;SDS011;25151;45.566;9.382;2022-07-22T06:57:06;4.07;;;1.98;;
39448;SDS011;25151;45.566;9.382;2022-07-22T07:00:07;6.43;;;2.33;;
39448;SDS011;25151;45.566;9.382;2022-07-22T07:03:09;4.00;;;1.60;;
39448;SDS011;25151;45.566;9.382;2022-07-22T07:06:10;13.70;;;2.42;;
39448;SDS011;25151;45.566;9.382;2022-07-22T07:09:11;5.25;;;1.90;;
39448;SDS011;25151;45.566;9.382;2022-07-22T07:12:12;4.63;;;1.98;;
39448;SDS011;25151;45.566;9.382;2022-07-22T07:15:16;5.90;;;2.45;;
39448;SDS011;25151;45.566;9.382;2022-07-22T07:18:17;4.40;;;1.95;;
39448;SDS011;25151;45.566;9.382;2022-07-22T07:21:21;8.35;;;2.15;;
39448;SDS011;25151;45.566;9.382;2022-07-22T07:24:21;6.82;;;1.88;;
39448;SDS011;25151;45.566;9.382;2022-07-22T07:27:22;7.30;;;2.03;;
39448;SDS011;25151;45.566;9.382;2022-07-22T07:30:24;3.83;;;1.92;;
39448;SDS011;25151;45.566;9.382;2022-07-22T07:33:28;8.57;;;2.55;;
39448;SDS011;25151;45.566;9.382;2022-07-22T07:36:28;8.13;;;2.03;;
39448;SDS011;25151;45.566;9.382;2022-07-22T07:39:29;9.50;;;2.80;;
39448;SDS011;25151;45.566;9.382;2022-07-22T07:42:30;4.20;;;1.55;;
39448;SDS011;25151;45.566;9.382;2022-07-22T07:45:31;8.88;;;2.70;;
39448;SDS011;25151;45.566;9.382;2022-07-22T07:48:31;6.57;;;2.85;;
39448;SDS011;25151;45.566;9.382;2022-07-22T07:51:32;7.50;;;2.30;;
39448;SDS011;25151;45.566;9.382;2022-07-22T07:54:33;4.10;;;2.05;;
39448;SDS011;25151;45.566;9.382;2022-07-22T07:57:34;6.93;;;2.20;;
39448;SDS011;25151;45.566;9.382;2022-07-22T08:00:35;5.88;;;2.13;;
39448;SDS011;25151;45.566;9.382;2022-07-22T08:03:37;11.68;;;2.28;;
39448;SDS011;25151;45.566;9.382;2022-07-22T08:06:38;4.95;;;1.85;;
39448;SDS011;25151;45.566;9.382;2022-07-22T08:09:39;10.30;;;2.05;;
39448;SDS011;25151;45.566;9.382;2022-07-22T08:12:40;9.43;;;2.10;;
39448;SDS011;25151;45.566;9.382;2022-07-22T08:15:41;4.72;;;1.70;;
39448;SDS011;25151;45.566;9.382;2022-07-22T08:18:41;4.65;;;1.92;;
39448;SDS011;25151;45.566;9.382;2022-07-22T08:21:42;7.75;;;2.30;;
39448;SDS011;25151;45.566;9.382;2022-07-22T08:24:43;3.13;;;2.03;;
39448;SDS011;25151;45.566;9.382;2022-07-22T08:27:44;6.63;;;2.40;;
39448;SDS011;25151;45.566;9.382;2022-07-22T08:30:45;5.00;;;2.05;;
39448;SDS011;25151;45.566;9.382;2022-07-22T08:33:45;7.93;;;2.42;;
39448;SDS011;25151;45.566;9.382;2022-07-22T08:36:46;6.03;;;1.92;;
39448;SDS011;25151;45.566;9.382;2022-07-22T08:39:46;5.97;;;1.90;;
39448;SDS011;25151;45.566;9.382;2022-07-22T08:42:47;3.95;;;1.90;;
39448;SDS011;25151;45.566;9.382;2022-07-22T08:45:49;6.85;;;2.63;;
39448;SDS011;25151;45.566;9.382;2022-07-22T08:48:49;7.05;;;2.38;;
39448;SDS011;25151;45.566;9.382;2022-07-22T08:51:50;6.63;;;2.03;;
39448;SDS011;25151;45.566;9.382;2022-07-22T08:54:50;5.53;;;2.10;;
39448;SDS011;25151;45.566;9.382;2022-07-22T08:57:51;5.53;;;2.05;;
39448;SDS011;25151;45.566;9.382;2022-07-22T09:01:05;7.78;;;2.10;;
39448;SDS011;25151;45.566;9.382;2022-07-22T09:04:13;7.85;;;2.67;;
39448;SDS011;25151;45.566;9.382;2022-07-22T09:07:22;5.97;;;3.17;;
39448;SDS011;25151;45.566;9.382;2022-07-22T09:10:29;7.65;;;2.58;;
39448;SDS011;25151;45.566;9.382;2022-07-22T09:13:32;7.35;;;2.70;;
39448;SDS011;25151;45.566;9.382;2022-07-22T09:16:43;4.60;;;3.15;;
39448;SDS011;25151;45.566;9.382;2022-07-22T09:19:46;6.80;;;2.92;;
39448;SDS011;25151;45.566;9.382;2022-07-22T09:22:47;6.40;;;2.58;;
39448;SDS011;25151;45.566;9.382;2022-07-22T09:25:49;5.60;;;2.38;;
39448;SDS011;25151;45.566;9.382;2022-07-22T09:28:53;9.75;;;3.35;;
39448;SDS011;25151;45.566;9.382;2022-07-22T09:31:55;6.70;;;3.40;;
39448;SDS011;25151;45.566;9.382;2022-07-22T09:35:03;5.03;;;2.78;;
39448;SDS011;25151;45.566;9.382;2022-07-22T09:38:05;7.85;;;3.70;;
39448;SDS011;25151;45.566;9.382;2022-07-22T09:41:08;6.63;;;2.95;;
39448;SDS011;25151;45.566;9.382;2022-07-22T09:44:26;6.60;;;3.03;;
39448;SDS011;25151;45.566;9.382;2022-07-22T09:47:30;6.60;;;2.70;;
39448;SDS011;25151;45.566;9.382;2022-07-22T09:50:31;5.18;;;2.63;;
39448;SDS011;25151;45.566;9.382;2022-07-22T09:53:33;5.07;;;2.67;;
39448;SDS011;25151;45.566;9.382;2022-07-22T09:56:34;5.30;;;2.88;;
39448;SDS011;25151;45.566;9.382;2022-07-22T09:59:36;8.15;;;4.03;;
39448;SDS011;25151;45.566;9.382;2022-07-22T10:02:40;4.68;;;2.95;;
39448;SDS011;25151;45.566;9.382;2022-07-22T10:05:45;6.57;;;2.97;;
39448;SDS011;25151;45.566;9.382;2022-07-22T10:08:46;6.50;;;3.08;;
39448;SDS011;25151;45.566;9.382;2022-07-22T10:11:48;7.35;;;3.13;;
39448;SDS011;25151;45.566;9.382;2022-07-22T10:14:50;9.90;;;3.70;;
39448;SDS011;25151;45.566;9.382;2022-07-22T10:17:52;8.98;;;3.47;;
39448;SDS011;25151;45.566;9.382;2022-07-22T10:21:02;6.60;;;3.25;;
39448;SDS011;25151;45.566;9.382;2022-07-22T10:24:12;7.22;;;3.22;;
39448;SDS011;25151;45.566;9.382;2022-07-22T10:27:14;6.60;;;4.00;;
39448;SDS011;25151;45.566;9.382;2022-07-22T10:30:16;4.35;;;2.83;;
39448;SDS011;25151;45.566;9.382;2022-07-22T10:33:20;11.40;;;3.63;;
39448;SDS011;25151;45.566;9.382;2022-07-22T10:36:38;7.95;;;3.33;;
39448;SDS011;25151;45.566;9.382;2022-07-22T10:40:25;7.93;;;3.10;;
39448;SDS011;25151;45.566;9.382;2022-07-22T10:43:21;7.45;;;3.38;;
39448;SDS011;25151;45.566;9.382;2022-07-22T10:46:46;7.32;;;3.03;;
39448;SDS011;25151;45.566;9.382;2022-07-22T10:49:49;5.05;;;3.30;;
39448;SDS011;25151;45.566;9.382;2022-07-22T10:52:49;6.63;;;2.65;;
39448;SDS011;25151;45.566;9.382;2022-07-22T10:56:03;8.00;;;3.33;;
39448;SDS011;25151;45.566;9.382;2022-07-22T10:59:12;9.02;;;2.95;;
39448;SDS011;25151;45.566;9.382;2022-07-22T11:02:14;9.73;;;2.90;;
39448;SDS011;25151;45.566;9.382;2022-07-22T11:05:28;7.03;;;3.00;;
39448;SDS011;25151;45.566;9.382;2022-07-22T11:08:32;6.72;;;3.13;;
39448;SDS011;25151;45.566;9.382;2022-07-22T11:11:37;6.28;;;2.95;;
39448;SDS011;25151;45.566;9.382;2022-07-22T11:14:50;4.70;;;2.78;;
39448;SDS011;25151;45.566;9.382;2022-07-22T11:17:51;7.00;;;2.97;;
39448;SDS011;25151;45.566;9.382;2022-07-22T11:20:57;5.20;;;3.30;;
39448;SDS011;25151;45.566;9.382;2022-07-22T11:23:59;8.93;;;3.38;;
39448;SDS011;25151;45.566;9.382;2022-07-22T11:27:08;6.13;;;3.15;;
39448;SDS011;25151;45.566;9.382;2022-07-22T11:30:13;7.05;;;2.78;;
39448;SDS011;25151;45.566;9.382;2022-07-22T11:33:14;7.38;;;2.65;;
39448;SDS011;25151;45.566;9.382;2022-07-22T11:36:15;4.97;;;2.83;;
39448;SDS011;25151;45.566;9.382;2022-07-22T11:39:18;3.88;;;2.53;;
39448;SDS011;25151;45.566;9.382;2022-07-22T11:42:26;7.85;;;2.70;;
39448;SDS011;25151;45.566;9.382;2022-07-22T11:45:27;6.47;;;2.67;;
39448;SDS011;25151;45.566;9.382;2022-07-22T11:48:28;8.45;;;3.20;;
39448;SDS011;25151;45.566;9.382;2022-07-22T11:51:29;5.70;;;2.60;;
39448;SDS011;25151;45.566;9.382;2022-07-22T11:54:31;5.80;;;2.70;;
39448;SDS011;25151;45.566;9.382;2022-07-22T11:57:31;6.82;;;2.50;;
39448;SDS011;25151;45.566;9.382;2022-07-22T12:00:32;6.22;;;2.50;;
39448;SDS011;25151;45.566;9.382;2022-07-22T12:03:34;5.70;;;2.33;;
39448;SDS011;25151;45.566;9.382;2022-07-22T12:06:36;4.70;;;2.53;;
39448;SDS011;25151;45.566;9.382;2022-07-22T12:09:39;6.68;;;2.75;;
39448;SDS011;25151;45.566;9.382;2022-07-22T12:12:42;8.63;;;2.42;;
39448;SDS011;25151;45.566;9.382;2022-07-22T12:15:43;5.88;;;2.50;;
39448;SDS011;25151;45.566;9.382;2022-07-22T12:18:44;4.53;;;2.72;;
39448;SDS011;25151;45.566;9.382;2022-07-22T12:21:54;5.05;;;2.50;;
39448;SDS011;25151;45.566;9.382;2022-07-22T12:25:02;4.15;;;2.30;;
39448;SDS011;25151;45.566;9.382;2022-07-22T12:28:04;9.10;;;2.80;;
39448;SDS011;25151;45.566;9.382;2022-07-22T12:31:05;8.30;;;2.47;;
39448;SDS011;25151;45.566;9.382;2022-07-22T12:34:06;6.45;;;2.78;;
39448;SDS011;25151;45.566;9.382;2022-07-22T12:40:24;6.95;;;2.40;;
39448;SDS011;25151;45.566;9.382;2022-07-22T12:43:25;5.38;;;2.30;;
39448;SDS011;25151;45.566;9.382;2022-07-22T12:46:27;4.10;;;2.42;;
39448;SDS011;25151;45.566;9.382;2022-07-22T12:49:29;4.45;;;2.13;;
39448;SDS011;25151;45.566;9.382;2022-07-22T12:52:30;4.47;;;2.63;;
39448;SDS011;25151;45.566;9.382;2022-07-22T12:55:37;6.95;;;2.85;;
39448;SDS011;25151;45.566;9.382;2022-07-22T12:58:40;5.72;;;2.67;;
39448;SDS011;25151;45.566;9.382;2022-07-22T13:01:41;4.55;;;2.35;;
39448;SDS011;25151;45.566;9.382;2022-07-22T13:04:43;7.50;;;2.92;;
39448;SDS011;25151;45.566;9.382;2022-07-22T13:07:49;4.85;;;2.67;;
39448;SDS011;25151;45.566;9.382;2022-07-22T13:10:54;3.00;;;2.00;;
39448;SDS011;25151;45.566;9.382;2022-07-22T13:14:01;4.55;;;2.22;;
39448;SDS011;25151;45.566;9.382;2022-07-22T13:17:02;5.88;;;2.67;;
39448;SDS011;25151;45.566;9.382;2022-07-22T13:20:07;5.40;;;2.30;;
39448;SDS011;25151;45.566;9.382;2022-07-22T13:23:09;3.60;;;2.50;;
39448;SDS011;25151;45.566;9.382;2022-07-22T13:26:10;3.92;;;2.47;;
39448;SDS011;25151;45.566;9.382;2022-07-22T13:29:13;6.95;;;2.30;;
39448;SDS011;25151;45.566;9.382;2022-07-22T13:32:15;4.97;;;2.65;;
39448;SDS011;25151;45.566;9.382;2022-07-22T13:35:16;4.32;;;2.88;;
39448;SDS011;25151;45.566;9.382;2022-07-22T13:38:18;4.32;;;2.45;;
39448;SDS011;25151;45.566;9.382;2022-07-22T13:41:19;6.20;;;2.83;;
39448;SDS011;25151;45.566;9.382;2022-07-22T13:44:20;5.60;;;2.30;;
39448;SDS011;25151;45.566;9.382;2022-07-22T13:47:21;4.15;;;2.50;;
39448;SDS011;25151;45.566;9.382;2022-07-22T13:50:27;4.32;;;2.38;;
39448;SDS011;25151;45.566;9.382;2022-07-22T13:53:37;3.97;;;2.90;;
39448;SDS011;25151;45.566;9.382;2022-07-22T13:56:38;4.50;;;2.58;;
39448;SDS011;25151;45.566;9.382;2022-07-22T13:59:50;3.92;;;2.50;;
39448;SDS011;25151;45.566;9.382;2022-07-22T14:02:50;4.72;;;2.80;;
39448;SDS011;25151;45.566;9.382;2022-07-22T14:05:52;3.30;;;2.30;;
39448;SDS011;25151;45.566;9.382;2022-07-22T14:08:53;4.10;;;2.60;;
39448;SDS011;25151;45.566;9.382;2022-07-22T14:11:56;4.18;;;2.10;;
39448;SDS011;25151;45.566;9.382;2022-07-22T14:14:59;5.63;;;2.22;;
39448;SDS011;25151;45.566;9.382;2022-07-22T14:18:00;3.47;;;2.20;;
39448;SDS011;25151;45.566;9.382;2022-07-22T14:21:01;6.43;;;2.42;;
39448;SDS011;25151;45.566;9.382;2022-07-22T14:24:02;3.45;;;2.42;;
39448;SDS011;25151;45.566;9.382;2022-07-22T14:27:04;2.60;;;2.13;;
39448;SDS011;25151;45.566;9.382;2022-07-22T14:30:05;3.85;;;2.40;;
39448;SDS011;25151;45.566;9.382;2022-07-22T14:33:07;3.35;;;2.08;;
39448;SDS011;25151;45.566;9.382;2022-07-22T14:36:07;5.00;;;2.70;;
39448;SDS011;25151;45.566;9.382;2022-07-22T14:39:08;3.58;;;2.15;;
39448;SDS011;25151;45.566;9.382;2022-07-22T14:42:09;3.55;;;2.42;;
39448;SDS011;25151;45.566;9.382;2022-07-22T14:45:10;3.35;;;2.38;;
39448;SDS011;25151;45.566;9.382;2022-07-22T14:48:10;7.03;;;2.95;;
39448;SDS011;25151;45.566;9.382;2022-07-22T14:51:11;4.82;;;2.22;;
39448;SDS011;25151;45.566;9.382;2022-07-22T14:54:12;3.40;;;2.30;;
39448;SDS011;25151;45.566;9.382;2022-07-22T14:57:12;4.25;;;2.25;;
39448;SDS011;25151;45.566;9.382;2022-07-22T15:00:14;4.70;;;2.35;;
39448;SDS011;25151;45.566;9.382;2022-07-22T15:03:17;6.65;;;2.05;;
39448;SDS011;25151;45.566;9.382;2022-07-22T15:06:17;9.02;;;2.63;;
39448;SDS011;25151;45.566;9.382;2022-07-22T15:09:18;2.90;;;2.30;;
39448;SDS011;25151;45.566;9.382;2022-07-22T15:12:19;7.03;;;2.40;;
39448;SDS011;25151;45.566;9.382;2022-07-22T15:15:20;4.50;;;2.40;;
39448;SDS011;25151;45.566;9.382;2022-07-22T15:18:20;5.90;;;2.10;;
39448;SDS011;25151;45.566;9.382;2022-07-22T15:21:21;5.20;;;2.35;;
39448;SDS011;25151;45.566;9.382;2022-07-22T15:24:23;4.43;;;2.45;;
39448;SDS011;25151;45.566;9.382;2022-07-22T15:27:24;2.72;;;1.90;;
39448;SDS011;25151;45.566;9.382;2022-07-22T15:30:24;5.88;;;2.53;;
39448;SDS011;25151;45.566;9.382;2022-07-22T15:33:25;3.53;;;2.50;;
39448;SDS011;25151;45.566;9.382;2022-07-22T15:36:26;6.95;;;2.28;;
39448;SDS011;25151;45.566;9.382;2022-07-22T15:39:27;4.75;;;1.90;;
39448;SDS011;25151;45.566;9.382;2022-07-22T15:42:27;4.47;;;2.53;;
39448;SDS011;25151;45.566;9.382;2022-07-22T15:45:28;5.45;;;2.05;;
39448;SDS011;25151;45.566;9.382;2022-07-22T15:48:29;3.67;;;2.03;;
39448;SDS011;25151;45.566;9.382;2022-07-22T15:51:29;3.30;;;2.15;;
39448;SDS011;25151;45.566;9.382;2022-07-22T15:54:30;3.85;;;2.10;;
39448;SDS011;25151;45.566;9.382;2022-07-22T15:57:31;3.85;;;2.08;;
39448;SDS011;25151;45.566;9.382;2022-07-22T16:00:53;7.03;;;2.35;;
39448;SDS011;25151;45.566;9.382;2022-07-22T16:03:54;4.55;;;2.20;;
39448;SDS011;25151;45.566;9.382;2022-07-22T16:06:54;2.97;;;2.10;;
39448;SDS011;25151;45.566;9.382;2022-07-22T16:09:55;5.47;;;2.33;;
39448;SDS011;25151;45.566;9.382;2022-07-22T16:12:56;5.45;;;2.38;;
39448;SDS011;25151;45.566;9.382;2022-07-22T16:15:56;3.15;;;1.88;;
39448;SDS011;25151;45.566;9.382;2022-07-22T16:18:57;5.65;;;2.10;;
39448;SDS011;25151;45.566;9.382;2022-07-22T16:21:57;2.83;;;2.05;;
39448;SDS011;25151;45.566;9.382;2022-07-22T16:24:58;4.35;;;2.00;;
39448;SDS011;25151;45.566;9.382;2022-07-22T16:27:59;2.85;;;1.80;;
39448;SDS011;25151;45.566;9.382;2022-07-22T16:31:00;4.05;;;2.40;;
39448;SDS011;25151;45.566;9.382;2022-07-22T16:34:00;3.60;;;2.10;;
39448;SDS011;25151;45.566;9.382;2022-07-22T16:37:01;2.55;;;1.90;;
39448;SDS011;25151;45.566;9.382;2022-07-22T16:40:02;2.42;;;1.85;;
39448;SDS011;25151;45.566;9.382;2022-07-22T16:43:03;3.92;;;1.80;;
39448;SDS011;25151;45.566;9.382;2022-07-22T16:46:04;2.78;;;1.75;;
39448;SDS011;25151;45.566;9.382;2022-07-22T16:49:05;3.85;;;2.10;;
39448;SDS011;25151;45.566;9.382;2022-07-22T16:52:05;2.75;;;2.35;;
39448;SDS011;25151;45.566;9.382;2022-07-22T16:55:06;4.68;;;2.15;;
39448;SDS011;25151;45.566;9.382;2022-07-22T16:58:07;2.53;;;2.10;;
39448;SDS011;25151;45.566;9.382;2022-07-22T17:01:08;3.13;;;1.95;;
39448;SDS011;25151;45.566;9.382;2022-07-22T17:04:08;3.00;;;1.83;;
39448;SDS011;25151;45.566;9.382;2022-07-22T17:07:09;3.08;;;1.83;;
39448;SDS011;25151;45.566;9.382;2022-07-22T17:10:09;4.93;;;2.22;;
39448;SDS011;25151;45.566;9.382;2022-07-22T17:13:10;4.80;;;1.98;;
39448;SDS011;25151;45.566;9.382;2022-07-22T17:16:11;7.45;;;2.38;;
39448;SDS011;25151;45.566;9.382;2022-07-22T17:19:12;3.38;;;1.90;;
39448;SDS011;25151;45.566;9.382;2022-07-22T17:22:13;4.88;;;2.35;;
39448;SDS011;25151;45.566;9.382;2022-07-22T17:25:13;3.80;;;2.28;;
39448;SDS011;25151;45.566;9.382;2022-07-22T17:28:15;4.20;;;2.30;;
39448;SDS011;25151;45.566;9.382;2022-07-22T17:31:16;3.25;;;1.85;;
39448;SDS011;25151;45.566;9.382;2022-07-22T17:34:17;2.80;;;2.28;;
39448;SDS011;25151;45.566;9.382;2022-07-22T17:37:17;6.60;;;2.22;;
39448;SDS011;25151;45.566;9.382;2022-07-22T17:40:18;7.32;;;2.33;;
39448;SDS011;25151;45.566;9.382;2022-07-22T17:43:22;3.33;;;2.08;;
39448;SDS011;25151;45.566;9.382;2022-07-22T17:46:25;2.85;;;1.75;;
39448;SDS011;25151;45.566;9.382;2022-07-22T17:49:26;8.65;;;2.63;;
39448;SDS011;25151;45.566;9.382;2022-07-22T17:52:27;5.30;;;2.20;;
39448;SDS011;25151;45.566;9.382;2022-07-22T17:58:49;6.88;;;2.05;;
39448;SDS011;25151;45.566;9.382;2022-07-22T18:01:50;7.75;;;2.25;;
39448;SDS011;25151;45.566;9.382;2022-07-22T18:04:54;8.63;;;2.08;;
39448;SDS011;25151;45.566;9.382;2022-07-22T18:07:55;8.02;;;1.90;;
39448;SDS011;25151;45.566;9.382;2022-07-22T18:11:08;8.13;;;2.40;;
39448;SDS011;25151;45.566;9.382;2022-07-22T18:22:07;16.10;;;3.22;;
39448;SDS011;25151;45.566;9.382;2022-07-22T18:25:08;4.68;;;2.40;;
39448;SDS011;25151;45.566;9.382;2022-07-22T18:28:21;3.40;;;2.40;;
39448;SDS011;25151;45.566;9.382;2022-07-22T18:31:33;5.03;;;2.33;;
39448;SDS011;25151;45.566;9.382;2022-07-22T18:34:37;5.85;;;2.80;;
39448;SDS011;25151;45.566;9.382;2022-07-22T18:38:01;5.82;;;2.10;;
39448;SDS011;25151;45.566;9.382;2022-07-22T18:41:13;5.07;;;2.08;;
39448;SDS011;25151;45.566;9.382;2022-07-22T19:37:43;5.68;;;1.88;;
39448;SDS011;25151;45.566;9.382;2022-07-22T19:40:44;7.05;;;2.55;;
39448;SDS011;25151;45.566;9.382;2022-07-22T19:43:45;8.80;;;2.53;;
39448;SDS011;25151;45.566;9.382;2022-07-22T19:46:45;6.72;;;2.00;;
39448;SDS011;25151;45.566;9.382;2022-07-22T19:49:50;10.00;;;2.20;;
39448;SDS011;25151;45.566;9.382;2022-07-22T19:52:51;7.70;;;2.05;;
39448;SDS011;25151;45.566;9.382;2022-07-22T19:55:52;3.95;;;2.10;;
39448;SDS011;25151;45.566;9.382;2022-07-22T19:58:52;3.40;;;2.10;;